createdAt,value
2022-09-04T00:00:18.790Z,16.90
2022-09-04T00:03:17.358Z,16.90
2022-09-04T00:06:12.447Z,16.90
2022-09-04T00:09:11.079Z,16.90
2022-09-04T00:12:11.244Z,16.80
2022-09-04T00:15:13.634Z,16.90
2022-09-04T00:18:08.242Z,16.80
2022-09-04T00:21:07.259Z,16.80
2022-09-04T00:23:57.542Z,16.70
2022-09-04T00:27:10.341Z,16.70
2022-09-04T00:30:03.324Z,16.60
2022-09-04T00:32:57.909Z,16.60
2022-09-04T00:35:59.832Z,16.60
2022-09-04T00:38:53.803Z,16.60
2022-09-04T00:42:02.973Z,16.60
2022-09-04T00:45:07.752Z,16.50
2022-09-04T00:48:08.315Z,16.50
2022-09-04T00:51:17.063Z,16.50
2022-09-04T00:54:08.904Z,16.50
2022-09-04T00:57:39.500Z,16.50
2022-09-04T01:00:27.972Z,16.50
2022-09-04T01:03:34.489Z,16.50
2022-09-04T01:06:36.016Z,16.40
2022-09-04T01:09:31.571Z,16.40
2022-09-04T01:12:51.346Z,16.40
2022-09-04T01:15:55.486Z,16.40
2022-09-04T01:18:56.343Z,16.30
2022-09-04T01:21:50.661Z,16.30
2022-09-04T01:24:54.027Z,16.30
2022-09-04T01:28:03.448Z,16.10
2022-09-04T01:31:00.336Z,15.80
2022-09-04T01:33:54.910Z,15.70
2022-09-04T01:36:55.761Z,15.60
2022-09-04T01:39:46.581Z,15.60
2022-09-04T01:42:47.638Z,15.60
2022-09-04T01:45:57.521Z,15.70
2022-09-04T01:48:49.241Z,15.70
2022-09-04T01:51:48.519Z,15.90
2022-09-04T01:54:43.256Z,15.70
2022-09-04T01:57:34.834Z,15.70
2022-09-04T02:00:23.167Z,15.80
2022-09-04T02:03:29.033Z,15.90
2022-09-04T02:06:38.426Z,16.00
2022-09-04T02:09:42.595Z,16.00
2022-09-04T02:12:51.120Z,16.00
2022-09-04T02:15:49.322Z,16.00
2022-09-04T02:18:36.044Z,16.00
2022-09-04T02:21:41.021Z,16.10
2022-09-04T02:24:37.178Z,16.10
2022-09-04T02:27:45.696Z,16.00
2022-09-04T02:31:03.747Z,16.00
2022-09-04T02:33:52.953Z,16.00
2022-09-04T02:36:53.324Z,16.00
2022-09-04T02:39:58.568Z,16.00
2022-09-04T02:42:44.413Z,16.00
2022-09-04T02:45:42.224Z,16.00
2022-09-04T02:49:02.267Z,16.00
2022-09-04T02:52:13.480Z,16.00
2022-09-04T02:55:32.109Z,16.00
2022-09-04T02:58:36.604Z,15.80
2022-09-04T03:01:29.278Z,15.80
2022-09-04T03:04:42.880Z,15.80
2022-09-04T03:07:45.654Z,15.80
2022-09-04T03:10:53.277Z,15.90
2022-09-04T03:14:01.509Z,15.80
2022-09-04T03:17:08.488Z,15.90
2022-09-04T03:20:00.576Z,16.00
2022-09-04T03:23:03.985Z,16.00
2022-09-04T03:26:11.049Z,16.00
2022-09-04T03:29:10.012Z,15.80
2022-09-04T03:32:15.947Z,15.80
2022-09-04T03:35:26.812Z,15.80
2022-09-04T03:38:38.981Z,15.70
2022-09-04T03:41:39.782Z,15.50
2022-09-04T03:44:32.464Z,15.30
2022-09-04T03:47:27.393Z,15.30
2022-09-04T03:50:39.437Z,15.40
2022-09-04T03:53:41.490Z,15.30
2022-09-04T03:56:51.021Z,15.10
2022-09-04T04:00:06.946Z,15.30
2022-09-04T04:03:38.787Z,15.50
2022-09-04T04:06:44.347Z,15.50
2022-09-04T04:09:55.670Z,15.40
2022-09-04T04:13:21.690Z,15.50
2022-09-04T04:16:28.224Z,15.40
2022-09-04T04:19:35.304Z,15.40
2022-09-04T04:22:59.207Z,15.40
2022-09-04T04:26:18.387Z,15.50
2022-09-04T04:29:37.009Z,15.50
2022-09-04T04:32:47.410Z,15.40
2022-09-04T04:35:48.252Z,15.40
2022-09-04T04:39:12.858Z,15.40
2022-09-04T04:42:11.561Z,15.50
2022-09-04T04:45:21.490Z,15.50
2022-09-04T04:48:25.809Z,15.50
2022-09-04T04:51:39.679Z,15.50
2022-09-04T04:54:37.440Z,15.50
2022-09-04T04:57:37.862Z,15.50
2022-09-04T05:00:42.948Z,15.40
2022-09-04T05:03:35.095Z,15.50
2022-09-04T05:06:49.106Z,15.50
2022-09-04T05:09:46.178Z,15.40
2022-09-04T05:12:59.075Z,15.50
2022-09-04T05:16:24.140Z,15.50
2022-09-04T05:19:20.873Z,15.40
2022-09-04T05:22:23.149Z,15.40
2022-09-04T05:25:31.136Z,15.40
2022-09-04T05:28:28.400Z,15.50
2022-09-04T05:31:24.511Z,15.40
2022-09-04T05:34:49.020Z,15.50
2022-09-04T05:37:46.952Z,15.50
2022-09-04T05:41:04.141Z,15.60
2022-09-04T05:44:08.920Z,15.70
2022-09-04T05:47:06.122Z,15.80
2022-09-04T05:50:12.984Z,15.90
2022-09-04T05:53:37.898Z,15.80
2022-09-04T05:56:50.614Z,16.00
2022-09-04T06:00:06.038Z,16.00
2022-09-04T06:03:29.919Z,16.10
2022-09-04T06:06:44.762Z,16.20
2022-09-04T06:09:33.534Z,16.20
2022-09-04T06:12:28.177Z,16.40
2022-09-04T06:15:50.579Z,16.60
2022-09-04T06:18:49.258Z,17.00
2022-09-04T06:21:53.703Z,17.20
2022-09-04T06:25:05.225Z,17.50
2022-09-04T06:28:12.347Z,17.60
2022-09-04T06:31:16.226Z,17.90
2022-09-04T06:34:13.997Z,17.90
2022-09-04T06:37:18.613Z,17.90
2022-09-04T06:40:46.073Z,18.00
2022-09-04T06:43:49.490Z,17.90
2022-09-04T06:46:42.038Z,18.30
2022-09-04T06:49:42.652Z,18.50
2022-09-04T06:53:04.298Z,18.80
2022-09-04T06:56:14.825Z,18.90
2022-09-04T06:59:01.565Z,19.10
2022-09-04T07:02:17.877Z,19.20
2022-09-04T07:05:18.584Z,19.40
2022-09-04T07:08:43.237Z,19.50
2022-09-04T07:11:50.375Z,19.60
2022-09-04T07:15:14.767Z,19.50
2022-09-04T07:18:10.422Z,19.50
2022-09-04T07:21:11.175Z,19.70
2022-09-04T07:24:26.809Z,19.80
2022-09-04T07:27:23.758Z,19.80
2022-09-04T07:30:11.912Z,19.90
2022-09-04T07:33:24.587Z,20.00
2022-09-04T07:36:31.873Z,20.10
2022-09-04T07:39:36.067Z,20.10
2022-09-04T07:42:36.584Z,20.30
2022-09-04T07:45:25.956Z,20.60
2022-09-04T07:48:22.183Z,20.70
2022-09-04T07:51:22.075Z,20.80
2022-09-04T07:54:29.660Z,20.90
2022-09-04T07:57:24.127Z,20.90
2022-09-04T08:00:21.067Z,21.20
2022-09-04T08:03:29.856Z,21.30
2022-09-04T08:06:37.625Z,21.40
2022-09-04T08:09:37.707Z,21.50
2022-09-04T08:13:12.204Z,21.60
2022-09-04T08:16:11.727Z,21.80
2022-09-04T08:19:15.640Z,22.00
2022-09-04T08:22:04.945Z,22.10
2022-09-04T08:25:27.451Z,22.30
2022-09-04T08:28:20.030Z,22.50
2022-09-04T08:31:24.286Z,22.60
2022-09-04T08:34:25.460Z,22.70
2022-09-04T08:37:28.306Z,22.80
2022-09-04T08:40:44.588Z,22.90
2022-09-04T08:43:44.376Z,23.20
2022-09-04T08:46:30.103Z,23.40
2022-09-04T08:49:38.474Z,23.50
2022-09-04T08:52:45.370Z,23.70
2022-09-04T08:55:41.004Z,23.90
2022-09-04T08:58:37.174Z,24.00
2022-09-04T09:01:31.353Z,24.20
2022-09-04T09:04:48.281Z,24.50
2022-09-04T09:07:48.149Z,24.30
2022-09-04T09:10:42.867Z,24.40
2022-09-04T09:13:57.698Z,24.50
2022-09-04T09:17:29.978Z,24.70
2022-09-04T09:20:30.073Z,24.70
2022-09-04T09:23:22.697Z,24.60
2022-09-04T09:26:24.506Z,24.90
2022-09-04T09:29:45.033Z,25.10
2022-09-04T09:32:38.343Z,25.40
2022-09-04T09:35:42.380Z,25.40
2022-09-04T09:38:48.649Z,25.30
2022-09-04T09:41:51.248Z,25.60
2022-09-04T09:44:45.937Z,25.90
2022-09-04T09:48:09.755Z,25.90
2022-09-04T09:51:38.939Z,26.00
2022-09-04T09:54:56.560Z,26.20
2022-09-04T09:58:17.709Z,26.50
2022-09-04T10:01:33.151Z,26.70
2022-09-04T10:04:46.893Z,26.70
2022-09-04T10:08:01.323Z,27.00
2022-09-04T10:11:10.269Z,27.10
2022-09-04T10:14:31.739Z,27.00
2022-09-04T10:17:32.010Z,27.30
2022-09-04T10:20:50.730Z,27.50
2022-09-04T10:24:14.954Z,27.50
2022-09-04T10:27:19.231Z,27.60
2022-09-04T10:30:17.659Z,27.50
2022-09-04T10:33:21.446Z,27.60
2022-09-04T10:36:34.475Z,27.60
2022-09-04T10:40:03.473Z,27.50
2022-09-04T10:43:09.669Z,27.60
2022-09-04T10:46:01.496Z,27.80
2022-09-04T10:48:59.310Z,28.00
2022-09-04T10:52:10.056Z,28.10
2022-09-04T10:55:07.711Z,28.10
2022-09-04T10:58:17.117Z,28.20
2022-09-04T11:01:05.705Z,28.10
2022-09-04T11:04:27.155Z,28.10
2022-09-04T11:07:41.588Z,28.20
2022-09-04T11:10:53.326Z,28.40
2022-09-04T11:14:06.536Z,28.70
2022-09-04T11:17:13.356Z,29.00
2022-09-04T11:20:17.687Z,29.20
2022-09-04T11:23:07.245Z,29.40
2022-09-04T11:26:05.965Z,29.60
2022-09-04T11:29:00.936Z,29.60
2022-09-04T11:32:25.111Z,29.70
2022-09-04T11:35:45.310Z,29.80
2022-09-04T11:38:44.898Z,30.20
2022-09-04T11:41:53.270Z,30.80
2022-09-04T11:45:08.014Z,31.40
2022-09-04T11:48:08.820Z,31.90
2022-09-04T11:51:04.796Z,33.00
2022-09-04T11:54:17.159Z,37.60
2022-09-04T11:57:38.070Z,44.90
2022-09-04T12:00:23.417Z,51.40
2022-09-04T12:03:14.909Z,54.10
2022-09-04T12:06:29.724Z,55.30
2022-09-04T12:09:54.643Z,55.90
2022-09-04T12:13:15.135Z,57.70
2022-09-04T12:16:29.464Z,58.90
2022-09-04T12:19:29.970Z,59.30
2022-09-04T12:22:26.087Z,59.30
2022-09-04T12:25:37.666Z,59.40
2022-09-04T12:28:42.065Z,58.90
2022-09-04T12:31:52.925Z,56.50
2022-09-04T12:35:08.182Z,57.00
2022-09-04T12:38:41.250Z,57.10
2022-09-04T12:41:54.414Z,56.20
2022-09-04T12:45:21.980Z,55.50
2022-09-04T12:48:23.522Z,51.40
2022-09-04T12:51:19.571Z,52.60
2022-09-04T12:54:46.329Z,53.60
2022-09-04T12:57:42.241Z,51.40
2022-09-04T13:00:40.736Z,47.90
2022-09-04T13:03:59.805Z,51.00
2022-09-04T13:07:15.949Z,53.60
2022-09-04T13:10:07.978Z,50.30
2022-09-04T13:13:21.093Z,51.60
2022-09-04T13:16:17.142Z,53.50
2022-09-04T13:19:30.945Z,53.20
2022-09-04T13:22:39.388Z,53.60
2022-09-04T13:25:49.228Z,53.10
2022-09-04T13:28:45.240Z,48.80
2022-09-04T13:31:50.625Z,45.40
2022-09-04T13:34:45.958Z,43.60
2022-09-04T13:37:55.077Z,42.60
2022-09-04T13:41:22.250Z,42.30
2022-09-04T13:44:19.657Z,40.90
2022-09-04T13:47:11.892Z,38.70
2022-09-04T13:50:09.920Z,37.70
2022-09-04T13:53:04.180Z,36.60
2022-09-04T13:55:54.448Z,35.70
2022-09-04T13:58:51.230Z,35.00
2022-09-04T14:01:46.286Z,34.20
2022-09-04T14:04:39.173Z,33.70
2022-09-04T14:07:29.673Z,33.00
2022-09-04T14:10:25.631Z,32.70
2022-09-04T14:13:41.551Z,32.60
2022-09-04T14:16:26.969Z,32.60
2022-09-04T14:19:24.424Z,32.40
2022-09-04T14:22:24.309Z,32.20
2022-09-04T14:25:21.878Z,32.20
2022-09-04T14:28:16.356Z,32.10
2022-09-04T14:31:24.262Z,31.80
2022-09-04T14:34:36.181Z,31.60
2022-09-04T14:38:00.140Z,31.30
2022-09-04T14:41:36.292Z,30.30
2022-09-04T14:44:50.895Z,30.60
2022-09-04T14:47:54.747Z,30.60
2022-09-04T14:50:48.878Z,30.80
2022-09-04T14:53:35.522Z,30.80
2022-09-04T14:56:41.196Z,30.80
2022-09-04T14:59:35.698Z,30.70
2022-09-04T15:02:34.162Z,30.70
2022-09-04T15:05:28.975Z,30.70
2022-09-04T15:08:34.648Z,30.60
2022-09-04T15:11:33.280Z,30.50
2022-09-04T15:14:33.097Z,30.30
2022-09-04T15:17:28.278Z,30.30
2022-09-04T15:20:22.529Z,30.30
2022-09-04T15:23:22.265Z,30.20
2022-09-04T15:26:17.979Z,30.10
2022-09-04T15:29:37.285Z,30.10
2022-09-04T15:32:26.055Z,30.00
2022-09-04T15:35:20.936Z,29.90
2022-09-04T15:38:25.409Z,29.90
2022-09-04T15:41:19.776Z,29.80
2022-09-04T15:44:20.045Z,29.70
2022-09-04T15:47:36.607Z,29.60
2022-09-04T15:50:27.633Z,29.60
2022-09-04T15:53:32.197Z,29.50
2022-09-04T15:56:20.406Z,29.40
2022-09-04T15:59:18.147Z,29.30
2022-09-04T16:02:36.160Z,29.40
2022-09-04T16:05:41.171Z,29.40
2022-09-04T16:08:50.726Z,29.30
2022-09-04T16:11:42.581Z,29.30
2022-09-04T16:14:35.260Z,29.10
2022-09-04T16:17:28.622Z,28.90
2022-09-04T16:20:36.388Z,28.80
2022-09-04T16:23:49.591Z,28.70
2022-09-04T16:26:36.082Z,28.60
2022-09-04T16:29:35.807Z,28.60
2022-09-04T16:32:28.815Z,28.60
2022-09-04T16:35:21.281Z,28.40
2022-09-04T16:38:19.941Z,28.20
2022-09-04T16:41:29.040Z,28.00
2022-09-04T16:44:27.461Z,27.90
2022-09-04T16:47:38.370Z,27.80
2022-09-04T16:50:37.662Z,27.80
2022-09-04T16:53:27.314Z,27.90
2022-09-04T16:56:36.804Z,28.50
2022-09-04T16:59:35.678Z,28.20
2022-09-04T17:02:37.463Z,27.80
2022-09-04T17:05:28.222Z,27.50
2022-09-04T17:08:39.941Z,27.30
2022-09-04T17:11:55.603Z,27.00
2022-09-04T17:14:50.673Z,26.80
2022-09-04T17:17:41.574Z,26.60
2022-09-04T17:23:08.802Z,26.50
2022-09-04T17:29:13.156Z,26.30
2022-09-04T17:29:14.610Z,26.40
2022-09-04T17:30:40.199Z,26.10
2022-09-04T17:40:30.442Z,25.90
2022-09-04T17:40:34.728Z,25.80
2022-09-04T17:40:48.576Z,25.60
2022-09-04T17:43:23.631Z,25.30
2022-09-04T17:46:38.952Z,25.20
2022-09-04T17:49:34.296Z,25.00
2022-09-04T17:52:32.839Z,24.70
2022-09-04T17:55:20.787Z,24.60
2022-09-04T17:58:11.577Z,24.40
2022-09-04T18:01:16.849Z,24.40
2022-09-04T18:04:27.627Z,24.40
2022-09-04T18:08:08.190Z,24.30
2022-09-04T18:10:39.758Z,24.20
2022-09-04T18:13:40.573Z,24.10
2022-09-04T18:17:11.659Z,24.00
2022-09-04T18:20:12.911Z,24.10
2022-09-04T18:23:51.365Z,24.00
2022-09-04T18:27:06.081Z,24.00
2022-09-04T18:33:25.320Z,23.90
2022-09-04T18:37:19.631Z,23.10
2022-09-04T18:37:26.030Z,23.80
2022-09-04T18:39:57.659Z,22.70
2022-09-04T18:50:20.300Z,22.50
2022-09-04T18:50:30.192Z,22.40
2022-09-04T18:50:48.580Z,22.20
2022-09-04T18:52:54.539Z,22.10
2022-09-04T18:55:46.024Z,22.00
2022-09-04T18:58:37.415Z,21.90
2022-09-04T19:02:01.798Z,21.70
2022-09-04T19:04:51.090Z,21.70
2022-09-04T19:07:51.646Z,21.60
2022-09-04T19:10:43.360Z,21.40
2022-09-04T19:13:50.398Z,21.40
2022-09-04T19:16:44.805Z,21.20
2022-09-04T19:19:51.509Z,21.20
2022-09-04T19:22:44.439Z,21.00
2022-09-04T19:25:40.377Z,20.80
2022-09-04T19:28:53.228Z,20.60
2022-09-04T19:31:49.285Z,20.60
2022-09-04T19:35:02.955Z,20.50
2022-09-04T19:40:49.148Z,20.40
2022-09-04T19:45:59.170Z,20.50
2022-09-04T19:46:13.768Z,20.60
2022-09-04T19:47:43.963Z,20.50
2022-09-04T19:53:19.706Z,20.40
2022-09-04T19:54:02.396Z,20.40
2022-09-04T19:57:31.189Z,20.40
2022-09-04T20:00:33.012Z,20.60
2022-09-04T20:03:45.690Z,20.60
2022-09-04T20:06:36.409Z,20.60
2022-09-04T20:09:44.425Z,20.70
2022-09-04T20:12:43.977Z,20.80
2022-09-04T20:15:45.560Z,20.80
2022-09-04T20:18:40.035Z,20.90
2022-09-04T20:21:43.677Z,20.80
2022-09-04T20:25:01.618Z,20.80
2022-09-04T20:27:54.135Z,20.60
2022-09-04T20:30:46.614Z,20.70
2022-09-04T20:33:35.616Z,20.60
2022-09-04T20:36:29.111Z,20.60
2022-09-04T20:39:34.903Z,20.70
2022-09-04T20:42:28.752Z,20.90
2022-09-04T20:49:44.784Z,21.00
2022-09-04T20:52:55.458Z,20.80
2022-09-04T20:52:57.425Z,20.90
2022-09-04T20:55:32.439Z,20.80
2022-09-04T21:02:41.017Z,20.70
2022-09-04T21:03:17.388Z,20.60
2022-09-04T21:05:20.366Z,20.30
2022-09-04T21:08:13.588Z,20.20
2022-09-04T21:11:38.906Z,20.20
2022-09-04T21:14:18.682Z,20.20
2022-09-04T21:17:34.061Z,20.30
2022-09-04T21:21:06.807Z,20.40
2022-09-04T21:24:07.918Z,20.30
2022-09-04T21:27:01.775Z,20.30
2022-09-04T21:29:59.276Z,20.20
2022-09-04T21:33:28.404Z,20.10
2022-09-04T21:36:30.025Z,20.10
2022-09-04T21:39:18.499Z,20.00
2022-09-04T21:42:33.982Z,20.00
2022-09-04T21:45:25.949Z,19.90
2022-09-04T21:48:37.172Z,19.90
2022-09-04T21:51:51.514Z,19.80
2022-09-04T21:58:00.473Z,19.70
2022-09-04T22:02:28.550Z,19.60
2022-09-04T22:02:42.824Z,19.50
2022-09-04T22:05:22.456Z,19.40
2022-09-04T22:13:29.893Z,19.40
2022-09-04T22:13:37.379Z,19.20
2022-09-04T22:15:41.486Z,19.20
2022-09-04T22:18:45.265Z,19.10
2022-09-04T22:22:06.310Z,18.90
2022-09-04T22:25:18.965Z,18.90
2022-09-04T22:28:32.113Z,18.90
2022-09-04T22:31:29.941Z,18.80
2022-09-04T22:34:26.054Z,18.70
2022-09-04T22:37:54.076Z,18.60
2022-09-04T22:40:56.879Z,18.70
2022-09-04T22:43:52.518Z,18.90
2022-09-04T22:46:43.814Z,19.00
2022-09-04T22:49:41.396Z,19.10
2022-09-04T22:52:45.142Z,19.20
2022-09-04T22:56:09.847Z,19.20
2022-09-04T22:59:26.751Z,19.20
2022-09-04T23:03:20.895Z,19.20
2022-09-04T23:07:56.126Z,19.30
2022-09-04T23:13:42.308Z,19.20
2022-09-04T23:13:56.343Z,19.10
2022-09-04T23:16:39.589Z,18.90
2022-09-04T23:25:44.189Z,18.90
2022-09-04T23:26:46.044Z,18.80
2022-09-04T23:26:59.881Z,18.70
2022-09-04T23:30:26.563Z,18.60
2022-09-04T23:33:32.069Z,18.70
2022-09-04T23:36:36.802Z,18.70
2022-09-04T23:39:34.780Z,18.60
2022-09-04T23:42:48.216Z,18.60
2022-09-04T23:46:08.212Z,18.50
2022-09-04T23:49:11.672Z,18.30
2022-09-04T23:52:15.878Z,18.20
2022-09-04T23:55:45.048Z,18.10
2022-09-04T23:59:05.979Z,18.10
